createdAt,value
2016-10-10T00:00:19.522Z,75.45
2016-10-10T00:01:19.539Z,74.98
2016-10-10T00:02:19.553Z,75.16
2016-10-10T00:03:19.572Z,74.5
2016-10-10T00:04:19.591Z,75.07
2016-10-10T00:05:19.608Z,75.45
2016-10-10T00:06:19.625Z,75.36
2016-10-10T00:07:19.641Z,75.45
2016-10-10T00:08:19.657Z,75.36
2016-10-10T00:09:19.677Z,75.16
2016-10-10T00:10:19.694Z,75.16
2016-10-10T00:11:19.715Z,74.5
2016-10-10T00:12:19.731Z,75.16
2016-10-10T00:13:19.745Z,75.07
2016-10-10T00:14:19.762Z,74.88
2016-10-10T00:15:19.781Z,75.16
2016-10-10T00:16:19.797Z,75.64
2016-10-10T00:17:19.818Z,75.45
2016-10-10T00:18:19.831Z,75.45
2016-10-10T00:19:19.846Z,75.55
2016-10-10T00:20:19.871Z,75.55
2016-10-10T00:21:19.879Z,75.64
2016-10-10T00:22:19.898Z,74.98
2016-10-10T00:23:19.915Z,75.55
2016-10-10T00:24:19.931Z,75.26
2016-10-10T00:25:19.948Z,75.16
2016-10-10T00:26:19.967Z,75.26
2016-10-10T00:27:19.983Z,74.98
2016-10-10T00:28:19.999Z,75.64
2016-10-10T00:29:20.013Z,75.36
2016-10-10T00:30:20.040Z,75.26
2016-10-10T00:31:20.063Z,75.16
2016-10-10T00:32:20.072Z,75.45
2016-10-10T00:33:20.086Z,75.36
2016-10-10T00:34:20.099Z,75.55
2016-10-10T00:35:20.116Z,75.64
2016-10-10T00:36:20.133Z,75.26
2016-10-10T00:37:20.164Z,75.36
2016-10-10T00:38:20.174Z,75.16
2016-10-10T00:39:20.183Z,75.36
2016-10-10T00:40:20.201Z,75.45
2016-10-10T00:41:20.223Z,75.64
2016-10-10T00:42:20.234Z,75.45
2016-10-10T00:43:20.252Z,75.45
2016-10-10T00:44:20.269Z,74.98
2016-10-10T00:45:20.286Z,75.45
2016-10-10T00:46:20.304Z,75.45
2016-10-10T00:47:20.319Z,75.26
2016-10-10T00:48:20.339Z,75.45
2016-10-10T00:49:20.353Z,75.26
2016-10-10T00:50:20.373Z,75.45
2016-10-10T00:51:20.387Z,75.36
2016-10-10T00:52:20.560Z,75.45
2016-10-10T00:53:20.527Z,75.45
2016-10-10T00:54:20.437Z,75.45
2016-10-10T00:55:20.454Z,75.26
2016-10-10T00:56:20.471Z,75.26
2016-10-10T00:57:20.485Z,75.07
2016-10-10T00:58:20.504Z,75.26
2016-10-10T00:59:20.522Z,75.45
2016-10-10T01:00:20.538Z,75.45
2016-10-10T01:01:20.556Z,75.36
2016-10-10T01:02:20.571Z,75.36
2016-10-10T01:03:20.587Z,75.45
2016-10-10T01:04:20.611Z,75.36
2016-10-10T01:05:20.624Z,75.45
2016-10-10T01:06:20.636Z,75.45
2016-10-10T01:07:20.658Z,75.26
2016-10-10T01:08:20.671Z,75.26
2016-10-10T01:09:20.696Z,75.26
2016-10-10T01:10:20.704Z,75.36
2016-10-10T01:11:20.727Z,75.36
2016-10-10T01:12:20.740Z,75.36
2016-10-10T01:13:20.757Z,75.26
2016-10-10T01:14:21.089Z,75.45
2016-10-10T01:15:20.790Z,75.36
2016-10-10T01:16:20.814Z,75.45
2016-10-10T01:17:20.825Z,75.55
2016-10-10T01:18:20.841Z,75.36
2016-10-10T01:19:20.856Z,75.26
2016-10-10T01:20:20.874Z,75.45
2016-10-10T01:21:20.892Z,75.36
2016-10-10T01:22:20.912Z,75.45
2016-10-10T01:23:20.927Z,75.45
2016-10-10T01:24:20.946Z,75.74
2016-10-10T01:25:20.957Z,75.36
2016-10-10T01:26:20.972Z,75.74
2016-10-10T01:27:20.991Z,75.36
2016-10-10T01:28:21.006Z,75.36
2016-10-10T01:29:21.026Z,75.45
2016-10-10T01:30:21.045Z,75.36
2016-10-10T01:31:21.057Z,75.45
2016-10-10T01:32:21.075Z,75.07
2016-10-10T01:33:21.098Z,75.64
2016-10-10T01:34:21.107Z,75.36
2016-10-10T01:35:21.268Z,75.55
2016-10-10T01:36:21.207Z,75.55
2016-10-10T01:37:21.155Z,75.55
2016-10-10T01:38:21.174Z,75.45
2016-10-10T01:39:21.191Z,75.45
2016-10-10T01:40:21.214Z,75.45
2016-10-10T01:41:21.224Z,75.55
2016-10-10T01:42:21.243Z,75.26
2016-10-10T01:43:21.258Z,75.16
2016-10-10T01:44:21.331Z,75.74
2016-10-10T01:45:21.292Z,75.74
2016-10-10T01:46:21.310Z,75.45
2016-10-10T01:47:21.327Z,75.64
2016-10-10T01:48:21.360Z,75.55
2016-10-10T01:49:21.358Z,75.74
2016-10-10T01:50:21.377Z,75.36
2016-10-10T01:51:21.399Z,75.36
2016-10-10T01:52:21.411Z,75.36
2016-10-10T01:53:21.426Z,75.74
2016-10-10T01:54:21.449Z,75.26
2016-10-10T01:55:21.459Z,75.64
2016-10-10T01:56:21.486Z,75.55
2016-10-10T01:57:21.497Z,75.74
2016-10-10T01:58:21.513Z,75.74
2016-10-10T01:59:21.529Z,75.74
2016-10-10T02:00:21.549Z,75.45
2016-10-10T02:01:21.563Z,75.55
2016-10-10T02:02:21.578Z,75.55
2016-10-10T02:03:21.594Z,75.74
2016-10-10T02:04:21.611Z,75.36
2016-10-10T02:05:21.636Z,75.36
2016-10-10T02:06:21.645Z,75.45
2016-10-10T02:07:21.665Z,75.74
2016-10-10T02:08:21.679Z,75.36
2016-10-10T02:09:21.695Z,75.45
2016-10-10T02:10:21.712Z,75.36
2016-10-10T02:11:21.728Z,75.55
2016-10-10T02:12:21.746Z,75.55
2016-10-10T02:13:21.761Z,75.55
2016-10-10T02:14:21.787Z,75.55
2016-10-10T02:15:21.800Z,75.55
2016-10-10T02:16:21.815Z,75.55
2016-10-10T02:17:21.829Z,75.64
2016-10-10T02:18:21.845Z,75.74
2016-10-10T02:19:21.972Z,75.55
2016-10-10T02:20:21.879Z,75.74
2016-10-10T02:21:21.893Z,75.45
2016-10-10T02:22:21.913Z,75.64
2016-10-10T02:23:21.930Z,75.64
2016-10-10T02:24:22.118Z,75.55
2016-10-10T02:25:21.965Z,75.74
2016-10-10T02:26:21.979Z,75.74
2016-10-10T02:27:21.997Z,75.45
2016-10-10T02:28:22.011Z,75.74
2016-10-10T02:29:22.028Z,75.74
2016-10-10T02:30:22.046Z,75.36
2016-10-10T02:31:22.063Z,75.45
2016-10-10T02:32:22.086Z,75.36
2016-10-10T02:33:22.096Z,75.36
2016-10-10T02:34:22.114Z,75.36
2016-10-10T02:35:22.130Z,75.26
2016-10-10T02:36:22.151Z,75.45
2016-10-10T02:37:22.164Z,75.55
2016-10-10T02:38:22.180Z,75.45
2016-10-10T02:39:22.200Z,75.74
2016-10-10T02:40:22.214Z,75.45
2016-10-10T02:41:22.232Z,75.74
2016-10-10T02:42:22.249Z,75.64
2016-10-10T02:43:22.264Z,75.36
2016-10-10T02:44:22.281Z,75.74
2016-10-10T02:45:22.299Z,75.74
2016-10-10T02:46:22.314Z,75.45
2016-10-10T02:47:22.331Z,75.45
2016-10-10T02:48:22.349Z,75.36
2016-10-10T02:49:22.376Z,75.36
2016-10-10T02:50:22.380Z,75.74
2016-10-10T02:51:22.400Z,75.36
2016-10-10T02:52:22.416Z,75.74
2016-10-10T02:53:22.432Z,75.55
2016-10-10T02:54:22.560Z,75.36
2016-10-10T02:55:22.584Z,75.74
2016-10-10T02:56:22.482Z,75.36
2016-10-10T02:57:22.500Z,75.45
2016-10-10T02:58:22.874Z,75.36
2016-10-10T02:59:22.532Z,75.45
2016-10-10T03:00:22.549Z,75.45
2016-10-10T03:01:22.565Z,74.98
2016-10-10T03:02:22.581Z,75.45
2016-10-10T03:03:22.598Z,75.45
2016-10-10T03:04:22.617Z,75.16
2016-10-10T03:05:22.631Z,75.55
2016-10-10T03:06:22.649Z,75.45
2016-10-10T03:07:22.665Z,75.36
2016-10-10T03:08:22.683Z,75.55
2016-10-10T03:09:22.698Z,75.45
2016-10-10T03:10:22.716Z,75.45
2016-10-10T03:11:22.731Z,75.26
2016-10-10T03:12:22.953Z,75.36
2016-10-10T03:13:22.875Z,75.45
2016-10-10T03:14:22.976Z,75.55
2016-10-10T03:15:22.887Z,75.26
2016-10-10T03:16:22.928Z,75.45
2016-10-10T03:17:22.832Z,75.45
2016-10-10T03:18:22.856Z,75.45
2016-10-10T03:19:22.894Z,75.45
2016-10-10T03:20:22.891Z,75.45
2016-10-10T03:21:22.906Z,75.45
2016-10-10T03:22:22.917Z,75.45
2016-10-10T03:23:22.956Z,75.45
2016-10-10T03:24:22.969Z,75.26
2016-10-10T03:25:22.968Z,75.36
2016-10-10T03:26:22.989Z,75.45
2016-10-10T03:27:23.000Z,75.55
2016-10-10T03:28:23.018Z,75.55
2016-10-10T03:29:23.037Z,75.36
2016-10-10T03:30:23.056Z,75.16
2016-10-10T03:31:23.072Z,75.45
2016-10-10T03:32:23.121Z,75.36
2016-10-10T03:33:23.103Z,75.45
2016-10-10T03:34:23.120Z,75.45
2016-10-10T03:35:23.134Z,75.45
2016-10-10T03:36:23.154Z,75.26
2016-10-10T03:37:23.216Z,75.36
2016-10-10T03:38:23.215Z,75.55
2016-10-10T03:39:23.248Z,75.74
2016-10-10T03:40:23.224Z,75.45
2016-10-10T03:41:23.236Z,75.45
2016-10-10T03:42:23.252Z,75.36
2016-10-10T03:43:23.271Z,74.98
2016-10-10T03:44:23.287Z,75.36
2016-10-10T03:45:23.304Z,75.45
2016-10-10T03:46:23.319Z,75.45
2016-10-10T03:47:23.338Z,75.45
2016-10-10T03:48:23.354Z,75.45
2016-10-10T03:49:23.369Z,75.45
2016-10-10T03:50:23.389Z,75.36
2016-10-10T03:51:23.409Z,75.45
2016-10-10T03:52:23.422Z,75.16
2016-10-10T03:53:23.437Z,75.26
2016-10-10T03:54:23.466Z,75.26
2016-10-10T03:55:23.470Z,75.16
2016-10-10T03:56:23.487Z,75.07
2016-10-10T03:57:23.503Z,75.45
2016-10-10T03:58:23.523Z,75.45
2016-10-10T03:59:23.540Z,75.26
2016-10-10T04:00:23.555Z,75.26
2016-10-10T04:01:23.571Z,75.45
2016-10-10T04:02:23.589Z,75.07
2016-10-10T04:03:23.605Z,75.16
2016-10-10T04:04:23.677Z,75.16
2016-10-10T04:05:23.734Z,75.26
2016-10-10T04:06:23.679Z,75.36
2016-10-10T04:07:23.763Z,75.36
2016-10-10T04:08:23.686Z,75.45
2016-10-10T04:09:23.707Z,75.45
2016-10-10T04:10:23.721Z,74.88
2016-10-10T04:11:23.738Z,75.55
2016-10-10T04:12:23.761Z,75.55
2016-10-10T04:13:23.773Z,75.16
2016-10-10T04:14:23.823Z,75.26
2016-10-10T04:15:23.813Z,75.26
2016-10-10T04:16:23.826Z,75.26
2016-10-10T04:17:23.839Z,75.45
2016-10-10T04:18:23.858Z,75.36
2016-10-10T04:19:23.872Z,75.45
2016-10-10T04:20:23.975Z,75.26
2016-10-10T04:21:23.988Z,75.36
2016-10-10T04:22:23.993Z,75.45
2016-10-10T04:23:24.070Z,75.16
2016-10-10T04:24:24.044Z,75.55
2016-10-10T04:25:24.049Z,74.98
2016-10-10T04:26:24.057Z,75.36
2016-10-10T04:27:24.090Z,75.45
2016-10-10T04:28:24.024Z,75.36
2016-10-10T04:29:24.039Z,75.55
2016-10-10T04:30:24.065Z,75.45
2016-10-10T04:31:24.075Z,75.45
2016-10-10T04:32:24.090Z,75.45
2016-10-10T04:33:24.112Z,75.45
2016-10-10T04:34:24.126Z,75.45
2016-10-10T04:35:24.141Z,75.36
2016-10-10T04:36:24.158Z,75.16
2016-10-10T04:37:24.174Z,75.45
2016-10-10T04:38:24.191Z,75.26
2016-10-10T04:39:24.207Z,75.45
2016-10-10T04:40:24.223Z,75.26
2016-10-10T04:41:24.241Z,75.26
2016-10-10T04:42:24.258Z,75.26
2016-10-10T04:43:24.276Z,75.45
2016-10-10T04:44:24.290Z,75.45
2016-10-10T04:45:24.312Z,75.36
2016-10-10T04:46:24.324Z,75.26
2016-10-10T04:47:24.340Z,75.45
2016-10-10T04:48:24.356Z,75.55
2016-10-10T04:49:24.375Z,75.07
2016-10-10T04:50:24.392Z,75.45
2016-10-10T04:51:24.406Z,75.36
2016-10-10T04:52:24.425Z,75.45
2016-10-10T04:53:24.449Z,75.45
2016-10-10T04:54:24.458Z,75.36
2016-10-10T04:55:24.473Z,75.45
2016-10-10T04:56:24.499Z,75.36
2016-10-10T04:57:24.644Z,75.36
2016-10-10T04:58:24.530Z,75.26
2016-10-10T04:59:24.543Z,75.45
2016-10-10T05:00:24.563Z,75.36
2016-10-10T05:01:24.577Z,75.07
2016-10-10T05:02:24.592Z,75.45
2016-10-10T05:03:24.609Z,75.45
2016-10-10T05:04:24.627Z,74.98
2016-10-10T05:05:24.643Z,75.16
2016-10-10T05:06:24.660Z,75.55
2016-10-10T05:07:24.675Z,75.16
2016-10-10T05:08:24.692Z,75.26
2016-10-10T05:09:24.710Z,75.45
2016-10-10T05:10:24.726Z,75.45
2016-10-10T05:11:24.744Z,75.26
2016-10-10T05:12:24.760Z,75.16
2016-10-10T05:13:24.894Z,75.16
2016-10-10T05:14:24.793Z,75.36
2016-10-10T05:15:24.820Z,75.26
2016-10-10T05:16:24.945Z,75.26
2016-10-10T05:17:24.847Z,75.26
2016-10-10T05:18:24.864Z,75.26
2016-10-10T05:19:24.878Z,75.45
2016-10-10T05:20:24.895Z,75.45
2016-10-10T05:21:24.928Z,75.45
2016-10-10T05:22:25.023Z,75.16
2016-10-10T05:23:24.945Z,75.45
2016-10-10T05:24:24.961Z,75.55
2016-10-10T05:25:24.978Z,75.45
2016-10-10T05:26:24.996Z,75.45
2016-10-10T05:27:25.011Z,75.45
2016-10-10T05:28:25.028Z,75.45
2016-10-10T05:29:25.052Z,75.45
2016-10-10T05:30:25.069Z,75.55
2016-10-10T05:31:25.081Z,75.45
2016-10-10T05:32:25.097Z,75.36
2016-10-10T05:33:25.112Z,75.36
2016-10-10T05:34:25.131Z,75.74
2016-10-10T05:35:25.145Z,75.36
2016-10-10T05:36:25.162Z,75.45
2016-10-10T05:37:25.188Z,75.45
2016-10-10T05:38:25.194Z,75.45
2016-10-10T05:39:25.213Z,75.26
2016-10-10T05:40:25.229Z,75.36
2016-10-10T05:41:25.246Z,75.36
2016-10-10T05:42:25.262Z,75.45
2016-10-10T05:43:25.279Z,75.45
2016-10-10T05:44:25.297Z,75.45
2016-10-10T05:45:25.314Z,75.45
2016-10-10T05:46:25.330Z,74.98
2016-10-10T05:47:25.347Z,75.55
2016-10-10T05:48:25.368Z,75.64
2016-10-10T05:49:25.379Z,75.36
2016-10-10T05:50:25.397Z,75.36
2016-10-10T05:51:25.417Z,75.36
2016-10-10T05:52:25.431Z,75.36
2016-10-10T05:53:25.452Z,75.36
2016-10-10T05:54:25.470Z,75.55
2016-10-10T05:55:25.593Z,75.45
2016-10-10T05:56:25.721Z,75.36
2016-10-10T05:57:25.729Z,75.45
2016-10-10T05:58:25.724Z,75.45
2016-10-10T05:59:25.548Z,75.26
2016-10-10T06:00:25.563Z,75.45
2016-10-10T06:01:25.581Z,75.45
2016-10-10T06:02:25.621Z,75.16
2016-10-10T06:03:25.616Z,75.45
2016-10-10T06:04:25.630Z,75.36
2016-10-10T06:05:25.648Z,75.45
2016-10-10T06:06:25.665Z,75.36
2016-10-10T06:07:25.682Z,75.26
2016-10-10T06:08:25.697Z,75.16
2016-10-10T06:09:25.719Z,75.16
2016-10-10T06:10:25.809Z,75.36
2016-10-10T06:11:25.837Z,75.16
2016-10-10T06:12:25.765Z,75.55
2016-10-10T06:13:25.793Z,75.36
2016-10-10T06:14:25.797Z,75.36
2016-10-10T06:15:25.816Z,75.45
2016-10-10T06:16:25.904Z,75.64
2016-10-10T06:17:25.851Z,75.36
2016-10-10T06:18:25.872Z,74.98
2016-10-10T06:19:25.883Z,75.45
2016-10-10T06:20:25.900Z,75.16
2016-10-10T06:21:25.921Z,75.45
2016-10-10T06:22:25.933Z,75.64
2016-10-10T06:23:25.950Z,75.45
2016-10-10T06:24:25.969Z,75.45
2016-10-10T06:25:25.984Z,75.36
2016-10-10T06:26:26.000Z,75.64
2016-10-10T06:27:26.023Z,75.64
2016-10-10T06:28:26.039Z,75.45
2016-10-10T06:29:26.052Z,75.45
2016-10-10T06:30:26.069Z,75.45
2016-10-10T06:31:26.093Z,75.59
2016-10-10T06:32:26.104Z,74.88
2016-10-10T06:33:26.121Z,75.01
2016-10-10T06:34:26.136Z,75.55
2016-10-10T06:35:26.161Z,75.45
2016-10-10T06:36:26.171Z,75.16
2016-10-10T06:37:26.187Z,75.49
2016-10-10T06:38:26.203Z,75.01
2016-10-10T06:39:26.221Z,75.68
2016-10-10T06:40:26.237Z,75.49
2016-10-10T06:41:26.262Z,75.49
2016-10-10T06:42:26.273Z,75.49
2016-10-10T06:43:26.291Z,75.4
2016-10-10T06:44:26.303Z,75.4
2016-10-10T06:45:26.322Z,74.92
2016-10-10T06:46:26.338Z,75.2
2016-10-10T06:47:26.358Z,75.2
2016-10-10T06:48:26.370Z,75.4
2016-10-10T06:49:26.389Z,75.01
2016-10-10T06:50:26.405Z,74.82
2016-10-10T06:51:26.423Z,74.63
2016-10-10T06:52:26.438Z,75.11
2016-10-10T06:53:26.457Z,74.63
2016-10-10T06:54:26.473Z,74.54
2016-10-10T06:55:26.552Z,74.54
2016-10-10T06:56:26.506Z,74.92
2016-10-10T06:57:26.527Z,74.63
2016-10-10T06:58:26.542Z,74.54
2016-10-10T06:59:26.560Z,74.92
2016-10-10T07:00:26.576Z,74.92
2016-10-10T07:01:26.593Z,74.63
2016-10-10T07:02:26.609Z,74.82
2016-10-10T07:03:26.626Z,74.82
2016-10-10T07:04:26.646Z,74.63
2016-10-10T07:05:26.662Z,74.63
2016-10-10T07:06:26.676Z,74.92
2016-10-10T07:07:26.694Z,75.11
2016-10-10T07:08:26.830Z,74.82
2016-10-10T07:09:26.844Z,75.01
2016-10-10T07:10:26.824Z,75.4
2016-10-10T07:11:26.836Z,75.11
2016-10-10T07:12:26.778Z,74.92
2016-10-10T07:13:26.796Z,75.4
2016-10-10T07:14:26.813Z,75.01
2016-10-10T07:15:26.832Z,75.11
2016-10-10T07:16:26.861Z,75.11
2016-10-10T07:17:26.863Z,74.54
2016-10-10T07:18:26.882Z,74.92
2016-10-10T07:19:26.898Z,74.92
2016-10-10T07:20:26.915Z,74.73
2016-10-10T07:21:26.938Z,74.82
2016-10-10T07:22:27.304Z,74.73
2016-10-10T07:23:26.965Z,75.01
2016-10-10T07:24:26.984Z,75.11
2016-10-10T07:25:27.006Z,74.63
2016-10-10T07:26:27.027Z,74.82
2016-10-10T07:27:27.037Z,74.82
2016-10-10T07:28:27.051Z,74.86
2016-10-10T07:29:27.076Z,74.77
2016-10-10T07:30:27.151Z,74.82
2016-10-10T07:31:27.103Z,74.96
2016-10-10T07:32:27.123Z,74.96
2016-10-10T07:33:27.137Z,75.05
2016-10-10T07:34:27.154Z,75.34
2016-10-10T07:35:27.171Z,75.15
2016-10-10T07:36:27.188Z,74.86
2016-10-10T07:37:27.205Z,75.2
2016-10-10T07:38:27.223Z,75.3
2016-10-10T07:39:27.241Z,75.15
2016-10-10T07:40:27.255Z,74.86
2016-10-10T07:41:27.274Z,75.15
2016-10-10T07:42:27.299Z,75.15
2016-10-10T07:43:27.311Z,74.96
2016-10-10T07:44:27.326Z,74.96
2016-10-10T07:45:27.348Z,75.15
2016-10-10T07:46:27.359Z,74.96
2016-10-10T07:47:27.376Z,74.86
2016-10-10T07:48:27.394Z,74.67
2016-10-10T07:49:27.412Z,74.96
2016-10-10T07:50:27.426Z,74.96
2016-10-10T07:51:27.456Z,74.67
2016-10-10T07:52:27.463Z,74.67
2016-10-10T07:53:27.493Z,74.86
2016-10-10T07:54:27.497Z,74.77
2016-10-10T07:55:27.519Z,74.77
2016-10-10T07:56:27.532Z,75.05
2016-10-10T07:57:27.556Z,74.77
2016-10-10T07:58:27.566Z,74.96
2016-10-10T07:59:27.583Z,74.67
2016-10-10T08:00:27.602Z,75.05
2016-10-10T08:01:27.616Z,74.96
2016-10-10T08:02:27.635Z,74.86
2016-10-10T08:03:27.652Z,74.77
2016-10-10T08:04:27.685Z,74.96
2016-10-10T08:05:27.688Z,74.77
2016-10-10T08:06:27.706Z,74.96
2016-10-10T08:07:27.724Z,74.77
2016-10-10T08:08:27.739Z,74.67
2016-10-10T08:09:27.758Z,74.77
2016-10-10T08:10:28.091Z,74.77
2016-10-10T08:11:27.797Z,74.77
2016-10-10T08:12:27.810Z,74.96
2016-10-10T08:13:27.829Z,75.05
2016-10-10T08:14:27.846Z,74.67
2016-10-10T08:15:27.870Z,74.86
2016-10-10T08:16:27.880Z,74.86
2016-10-10T08:17:27.896Z,74.86
2016-10-10T08:18:28.238Z,74.96
2016-10-10T08:19:27.930Z,74.77
2016-10-10T08:20:27.964Z,75.18
2016-10-10T08:21:27.969Z,74.99
2016-10-10T08:22:27.985Z,75.18
2016-10-10T08:23:28.001Z,75.18
2016-10-10T08:24:28.019Z,74.13
2016-10-10T08:25:28.044Z,74.99
2016-10-10T08:26:28.054Z,74.86
2016-10-10T08:27:28.093Z,74.99
2016-10-10T08:28:28.105Z,74.9
2016-10-10T08:29:28.113Z,74.9
2016-10-10T08:30:28.123Z,74.8
2016-10-10T08:31:28.142Z,74.61
2016-10-10T08:32:28.171Z,74.52
2016-10-10T08:33:28.225Z,74.8
2016-10-10T08:34:28.207Z,73.85
2016-10-10T08:35:28.228Z,74.9
2016-10-10T08:36:28.246Z,74.8
2016-10-10T08:37:28.262Z,74.8
2016-10-10T08:38:28.301Z,74.42
2016-10-10T08:39:28.299Z,74.23
2016-10-10T08:40:28.324Z,74.32
2016-10-10T08:41:28.351Z,74.42
2016-10-10T08:42:28.355Z,74.42
2016-10-10T08:43:28.392Z,74.32
2016-10-10T08:44:28.397Z,74.52
2016-10-10T08:45:28.431Z,74.42
2016-10-10T08:46:28.428Z,74.13
2016-10-10T08:47:28.428Z,74.04
2016-10-10T08:48:28.450Z,74.04
2016-10-10T08:49:28.464Z,74.23
2016-10-10T08:50:28.482Z,73.69
2016-10-10T08:51:28.500Z,74.27
2016-10-10T08:52:28.514Z,74.23
2016-10-10T08:53:28.534Z,73.41
2016-10-10T08:54:28.551Z,73.98
2016-10-10T08:55:28.569Z,74.08
2016-10-10T08:56:28.584Z,73.6
2016-10-10T08:57:28.604Z,73.6
2016-10-10T08:58:28.621Z,74.17
2016-10-10T08:59:28.640Z,73.88
2016-10-10T09:00:28.658Z,73.32
2016-10-10T09:01:28.676Z,74.08
2016-10-10T09:02:28.695Z,73.6
2016-10-10T09:03:28.711Z,73.98
2016-10-10T09:04:28.730Z,74.17
2016-10-10T09:05:28.749Z,73.69
2016-10-10T09:06:28.768Z,73.79
2016-10-10T09:07:28.802Z,73.79
2016-10-10T09:08:28.804Z,73.69
2016-10-10T09:09:28.820Z,73.6
2016-10-10T09:10:28.839Z,73.5
2016-10-10T09:11:28.855Z,73.41
2016-10-10T09:12:28.875Z,73.41
2016-10-10T09:13:28.893Z,72.93
2016-10-10T09:14:28.917Z,73.32
2016-10-10T09:15:28.929Z,72.74
2016-10-10T09:16:28.948Z,72.83
2016-10-10T09:17:28.968Z,72.97
2016-10-10T09:18:28.995Z,72.93
2016-10-10T09:19:29.011Z,73.03
2016-10-10T09:20:29.019Z,72.87
2016-10-10T09:21:29.040Z,72.97
2016-10-10T09:22:29.372Z,72.97
2016-10-10T09:23:29.082Z,73.07
2016-10-10T09:24:29.100Z,73.25
2016-10-10T09:25:29.109Z,73.16
2016-10-10T09:26:29.130Z,73.07
2016-10-10T09:27:29.149Z,73.35
2016-10-10T09:28:29.317Z,73.07
2016-10-10T09:29:29.184Z,72.78
2016-10-10T09:30:29.211Z,73.16
2016-10-10T09:31:29.221Z,73.25
2016-10-10T09:32:29.239Z,73.25
2016-10-10T09:33:29.260Z,72.78
2016-10-10T09:34:29.276Z,72.78
2016-10-10T09:35:29.297Z,73.16
2016-10-10T09:36:29.314Z,72.78
2016-10-10T09:37:29.332Z,72.58
2016-10-10T09:38:29.348Z,72.68
2016-10-10T09:39:29.371Z,72.87
2016-10-10T09:40:29.386Z,72.49
2016-10-10T09:41:29.404Z,72.91
2016-10-10T09:42:29.425Z,73
2016-10-10T09:43:29.439Z,73.1
2016-10-10T09:44:29.467Z,73.19
2016-10-10T09:45:29.478Z,72.62
2016-10-10T09:46:29.812Z,72.53
2016-10-10T09:47:29.516Z,72.53
2016-10-10T09:48:29.535Z,73
2016-10-10T09:49:29.554Z,72.72
2016-10-10T09:50:29.576Z,72.33
2016-10-10T09:51:29.589Z,72.24
2016-10-10T09:52:29.609Z,72.33
2016-10-10T09:53:29.635Z,72.53
2016-10-10T09:54:29.652Z,72.43
2016-10-10T09:55:29.668Z,72.33
2016-10-10T09:56:29.684Z,72.62
2016-10-10T09:57:29.703Z,72.53
2016-10-10T09:58:29.730Z,72.53
2016-10-10T09:59:29.738Z,72.43
2016-10-10T10:00:29.759Z,72.62
2016-10-10T10:01:29.776Z,72.53
2016-10-10T10:02:29.795Z,72.53
2016-10-10T10:03:29.812Z,72.53
2016-10-10T10:04:29.838Z,72.43
2016-10-10T10:05:29.850Z,72.62
2016-10-10T10:06:29.868Z,72.62
2016-10-10T10:07:29.884Z,72.72
2016-10-10T10:08:29.906Z,72.05
2016-10-10T10:09:29.925Z,72.33
2016-10-10T10:10:29.943Z,71.86
2016-10-10T10:11:29.962Z,71.76
2016-10-10T10:12:29.980Z,71.86
2016-10-10T10:13:29.999Z,72.05
2016-10-10T10:14:30.018Z,71.61
2016-10-10T10:15:30.038Z,71.42
2016-10-10T10:16:30.369Z,71.32
2016-10-10T10:17:30.073Z,71.32
2016-10-10T10:18:30.094Z,71.42
2016-10-10T10:19:30.111Z,71.42
2016-10-10T10:20:30.136Z,71.51
2016-10-10T10:21:30.150Z,71.51
2016-10-10T10:22:30.167Z,71.51
2016-10-10T10:23:30.186Z,71.7
2016-10-10T10:24:30.204Z,71.51
2016-10-10T10:25:30.231Z,71.61
2016-10-10T10:26:30.244Z,71.42
2016-10-10T10:27:30.263Z,71.51
2016-10-10T10:28:30.282Z,71.89
2016-10-10T10:29:30.315Z,71.32
2016-10-10T10:30:30.320Z,71.42
2016-10-10T10:31:30.338Z,70.84
2016-10-10T10:32:30.355Z,71.22
2016-10-10T10:33:30.373Z,71.32
2016-10-10T10:34:30.395Z,71.03
2016-10-10T10:35:30.413Z,71.03
2016-10-10T10:36:30.433Z,70.84
2016-10-10T10:37:30.452Z,70.75
2016-10-10T10:38:30.469Z,70.84
2016-10-10T10:39:30.490Z,70.94
2016-10-10T10:40:30.508Z,70.94
2016-10-10T10:41:30.528Z,70.56
2016-10-10T10:42:30.555Z,70.65
2016-10-10T10:43:30.565Z,70.65
2016-10-10T10:44:30.584Z,70.75
2016-10-10T10:45:30.603Z,71.07
2016-10-10T10:46:30.622Z,70.59
2016-10-10T10:47:30.643Z,70.59
2016-10-10T10:48:30.665Z,70.56
2016-10-10T10:49:30.687Z,70.17
2016-10-10T10:50:30.697Z,70.56
2016-10-10T10:51:30.721Z,70.27
2016-10-10T10:52:30.744Z,71.03
2016-10-10T10:53:30.762Z,70.65
2016-10-10T10:54:30.776Z,71.07
2016-10-10T10:55:30.795Z,70.4
2016-10-10T10:56:30.812Z,70.46
2016-10-10T10:57:30.833Z,70.46
2016-10-10T10:58:30.853Z,70.65
2016-10-10T10:59:30.873Z,70.65
2016-10-10T11:00:30.898Z,70.46
2016-10-10T11:01:30.917Z,70.27
2016-10-10T11:02:30.929Z,70.17
2016-10-10T11:03:30.949Z,70.65
2016-10-10T11:04:30.972Z,70.84
2016-10-10T11:05:30.987Z,70.84
2016-10-10T11:06:31.009Z,69.7
2016-10-10T11:07:31.022Z,70.4
2016-10-10T11:08:31.044Z,70.4
2016-10-10T11:09:31.063Z,70.46
2016-10-10T11:10:31.086Z,70.36
2016-10-10T11:11:31.102Z,69.7
2016-10-10T11:12:31.124Z,69.92
2016-10-10T11:13:31.142Z,69.6
2016-10-10T11:14:31.161Z,69.6
2016-10-10T11:15:31.181Z,69.98
2016-10-10T11:16:31.202Z,69.92
2016-10-10T11:17:31.220Z,69.7
2016-10-10T11:18:31.237Z,69.79
2016-10-10T11:19:31.257Z,70.56
2016-10-10T11:20:31.283Z,69.82
2016-10-10T11:21:31.297Z,70.01
2016-10-10T11:22:31.317Z,69.54
2016-10-10T11:23:31.336Z,70.01
2016-10-10T11:24:31.356Z,70.21
2016-10-10T11:25:31.377Z,69.35
2016-10-10T11:26:31.396Z,69.64
2016-10-10T11:27:31.413Z,69.06
2016-10-10T11:28:31.433Z,69.92
2016-10-10T11:29:31.457Z,68.68
2016-10-10T11:30:31.470Z,69.44
2016-10-10T11:31:31.498Z,69.35
2016-10-10T11:32:31.512Z,69.15
2016-10-10T11:33:31.536Z,69.35
2016-10-10T11:34:31.548Z,68.96
2016-10-10T11:35:31.567Z,68.87
2016-10-10T11:36:31.596Z,69.25
2016-10-10T11:37:31.608Z,69.15
2016-10-10T11:38:31.627Z,69.15
2016-10-10T11:39:31.646Z,69.15
2016-10-10T11:40:31.668Z,68.77
2016-10-10T11:41:31.685Z,68.29
2016-10-10T11:42:31.709Z,68.29
2016-10-10T11:43:31.730Z,68.39
2016-10-10T11:44:31.741Z,69.06
2016-10-10T11:45:31.764Z,68.58
2016-10-10T11:46:31.784Z,68.01
2016-10-10T11:47:31.802Z,68.39
2016-10-10T11:48:31.823Z,67.85
2016-10-10T11:49:31.849Z,67.76
2016-10-10T11:50:31.860Z,68.04
2016-10-10T11:51:31.879Z,68.04
2016-10-10T11:52:31.897Z,67.66
2016-10-10T11:53:31.919Z,66.99
2016-10-10T11:54:31.938Z,67.37
2016-10-10T11:55:31.962Z,66.99
2016-10-10T11:56:31.980Z,67.18
2016-10-10T11:57:32.009Z,66.8
2016-10-10T11:58:32.019Z,66.7
2016-10-10T11:59:32.037Z,66.99
2016-10-10T12:00:32.055Z,66.89
2016-10-10T12:01:32.081Z,67.41
2016-10-10T12:02:32.096Z,66.93
2016-10-10T12:03:32.119Z,66.64
2016-10-10T12:04:32.138Z,67.21
2016-10-10T12:05:32.161Z,66.93
2016-10-10T12:06:32.178Z,67.11
2016-10-10T12:07:32.195Z,66.74
2016-10-10T12:08:32.217Z,66.83
2016-10-10T12:09:32.237Z,67.31
2016-10-10T12:10:32.253Z,66.48
2016-10-10T12:11:32.277Z,66.77
2016-10-10T12:12:32.301Z,65.91
2016-10-10T12:13:32.317Z,65.71
2016-10-10T12:14:32.336Z,65.81
2016-10-10T12:15:32.364Z,66.19
2016-10-10T12:16:32.386Z,65.14
2016-10-10T12:17:32.393Z,65.42
2016-10-10T12:18:32.416Z,64.79
2016-10-10T12:19:32.440Z,64.4
2016-10-10T12:20:32.460Z,64.31
2016-10-10T12:21:32.476Z,64.31
2016-10-10T12:22:32.505Z,64.31
2016-10-10T12:23:32.516Z,63.54
2016-10-10T12:24:32.539Z,63.54
2016-10-10T12:25:32.561Z,63.92
2016-10-10T12:26:32.581Z,63.92
2016-10-10T12:27:32.601Z,63.92
2016-10-10T12:28:32.618Z,64.53
2016-10-10T12:29:32.641Z,64.43
2016-10-10T12:30:32.658Z,64.15
2016-10-10T12:31:32.681Z,64.34
2016-10-10T12:32:32.702Z,63.86
2016-10-10T12:33:32.723Z,64.05
2016-10-10T12:34:32.753Z,63.48
2016-10-10T12:35:32.761Z,63.79
2016-10-10T12:36:32.784Z,63.79
2016-10-10T12:37:32.802Z,63.42
2016-10-10T12:38:32.823Z,63.51
2016-10-10T12:39:32.845Z,63.03
2016-10-10T12:40:32.863Z,63.03
2016-10-10T12:41:32.890Z,62.55
2016-10-10T12:42:32.906Z,63.32
2016-10-10T12:43:32.924Z,63.03
2016-10-10T12:44:32.945Z,63.32
2016-10-10T12:45:32.967Z,62.07
2016-10-10T12:46:33.938Z,62.39
2016-10-10T12:47:33.009Z,62.1
2016-10-10T12:48:33.035Z,62.01
2016-10-10T12:49:33.053Z,62.29
2016-10-10T12:50:33.071Z,62.29
2016-10-10T12:51:33.095Z,62.19
2016-10-10T12:52:33.126Z,61.91
2016-10-10T12:53:33.146Z,61.91
2016-10-10T12:54:33.160Z,62.29